Scitico, Connecticut
Current Conditions -  °F | °C
As of 3:51 PM on Friday 24 Oct 2014 (Local Time) from KBDL Reporting Station
Overcast Overcast  
Wind Chill: 54°   Ceiling: 3000
Heat Index: 54°   Visibility: 10mi
Dew Point: 41°   Wind: 16mph
Humidity: 62%   Direction: 320°NW
Pressure: 29.74"   Gusts: 25mph
Location:  41.9843°N, 72.5534°W
Report Text: KBDL 241951Z 32014G22KT 10SM OVC030 12/05 A2974 RMK AO2 SLP072 BINOVC T01220050
Loading
Personal Weather Stations






























Interactive Weather Map
Tropical Storm Tracking
New forecast layout! Learn more

10-Day Weather Forecast

Advertisements
Track Severe Weather on mobile